Time;durP1;ratioP1;P1;durP2;ratioP2;P2;SDS_P1;SDS_P2;PMS_P1;PMS_P2;Temp;Humidity;BMP_temperature;BMP_pressure;BME280_temperature;BME280_humidity;BME280_pressure;Samples;Min_cycle;Max_cycle;Signal;HPM_P1;HPM_P2
2022/01/01 00:01:32;;;;;;;27.10;15.77;;;;;;;7.93;100.00;99733.47;5010776;28;20625;-54
2022/01/01 00:03:59;;;;;;;45.33;24.43;;;;;;;8.03;100.00;99731.03;5010754;28;20713;-53
2022/01/01 00:06:26;;;;;;;47.40;28.80;;;;;;;8.02;100.00;99724.19;5010361;28;20220;-55
2022/01/01 00:08:53;;;;;;;36.17;21.13;;;;;;;8.09;100.00;99719.38;5011080;28;20193;-53
2022/01/01 00:11:19;;;;;;;36.73;20.10;;;;;;;8.16;100.00;99722.38;5008458;28;20189;-55
2022/01/01 00:13:46;;;;;;;41.17;22.47;;;;;;;8.13;100.00;99726.88;5008825;28;20271;-54
2022/01/01 00:16:13;;;;;;;45.03;23.03;;;;;;;8.16;99.70;99732.78;5008238;28;20299;-53
2022/01/01 00:18:42;;;;;;;38.03;20.30;;;;;;;8.18;99.68;99734.31;5008137;28;20189;-56
2022/01/01 00:21:08;;;;;;;34.13;19.87;;;;;;;8.20;100.00;99735.06;5010102;28;20197;-54
2022/01/01 00:23:35;;;;;;;31.13;17.97;;;;;;;8.23;100.00;99752.22;5011038;28;20272;-52
2022/01/01 00:26:02;;;;;;;36.37;19.13;;;;;;;8.28;99.83;99757.94;5005657;28;20529;-53
2022/01/01 00:28:29;;;;;;;32.63;19.27;;;;;;;8.36;99.36;99773.84;5009224;28;20233;-52
2022/01/01 00:30:56;;;;;;;39.53;21.23;;;;;;;8.30;97.62;99770.81;5011462;28;20722;-55
2022/01/01 00:33:23;;;;;;;37.13;23.07;;;;;;;8.33;98.21;99779.25;5007754;28;20192;-52
2022/01/01 00:35:51;;;;;;;34.03;21.07;;;;;;;8.31;98.03;99769.88;5010025;28;20185;-53
2022/01/01 00:38:18;;;;;;;43.20;23.87;;;;;;;8.26;97.88;99772.81;5010983;28;20540;-53
2022/01/01 00:40:45;;;;;;;39.50;21.83;;;;;;;8.23;97.32;99773.84;5009159;28;20201;-57
2022/01/01 00:43:11;;;;;;;40.67;22.20;;;;;;;8.21;97.88;99770.53;5009805;28;20200;-52
2022/01/01 00:45:38;;;;;;;31.47;19.73;;;;;;;8.23;97.69;99776.44;5008792;28;21107;-54
2022/01/01 00:48:06;;;;;;;33.13;20.00;;;;;;;8.21;98.54;99765.31;5007629;28;20295;-53
2022/01/01 00:50:32;;;;;;;33.20;20.63;;;;;;;8.19;97.84;99775.00;5010321;28;20269;-53
2022/01/01 00:53:01;;;;;;;33.73;20.30;;;;;;;8.19;98.54;99766.38;5010651;28;20192;-54
2022/01/01 00:55:28;;;;;;;33.10;18.60;;;;;;;8.20;99.31;99775.84;5009491;28;20224;-52
2022/01/01 00:57:54;;;;;;;35.83;20.27;;;;;;;8.16;99.65;99762.22;5010963;28;20562;-55
2022/01/01 01:00:21;;;;;;;33.93;20.23;;;;;;;8.18;100.00;99775.94;5009892;28;20180;-53
2022/01/01 01:02:48;;;;;;;33.30;19.77;;;;;;;8.22;99.77;99773.97;5010360;28;20203;-52
2022/01/01 01:05:15;;;;;;;37.60;20.33;;;;;;;8.24;100.00;99774.69;5010551;28;20221;-55
2022/01/01 01:07:42;;;;;;;32.87;20.07;;;;;;;8.22;99.74;99774.78;5010380;28;20710;-52
2022/01/01 01:10:12;;;;;;;31.90;17.87;;;;;;;8.22;99.71;99779.19;5009820;28;20224;-53
2022/01/01 01:12:40;;;;;;;32.60;19.03;;;;;;;8.26;99.44;99773.63;5005199;28;20199;-54
2022/01/01 01:15:10;;;;;;;32.20;16.97;;;;;;;8.31;99.73;99773.31;5008187;28;20660;-55
2022/01/01 01:17:36;;;;;;;33.97;18.57;;;;;;;8.33;99.54;99783.63;5008944;28;20659;-54
2022/01/01 01:20:05;;;;;;;24.87;14.33;;;;;;;8.35;100.00;99779.97;5010057;28;20232;-55
2022/01/01 01:22:31;;;;;;;29.20;16.40;;;;;;;8.41;100.00;99783.91;5011376;28;20563;-53
2022/01/01 01:25:00;;;;;;;27.80;16.33;;;;;;;8.41;100.00;99778.69;5012292;28;20296;-53
2022/01/01 01:27:29;;;;;;;23.10;13.00;;;;;;;8.47;99.09;99773.06;5008007;28;20210;-55
2022/01/01 01:29:58;;;;;;;24.07;13.50;;;;;;;8.53;99.69;99777.88;5009247;28;20194;-56
2022/01/01 01:32:25;;;;;;;24.23;14.13;;;;;;;8.52;98.46;99777.97;5011628;28;20726;-58
2022/01/01 01:34:51;;;;;;;19.73;11.00;;;;;;;8.54;98.90;99783.88;5009972;28;20191;-55
2022/01/01 01:37:18;;;;;;;22.33;10.97;;;;;;;8.56;99.23;99784.59;5010043;28;20287;-56
2022/01/01 01:39:45;;;;;;;21.07;11.27;;;;;;;8.59;99.04;99784.38;5009501;28;20301;-56
2022/01/01 01:42:12;;;;;;;21.70;11.37;;;;;;;8.61;99.09;99795.53;5008789;28;20223;-52
2022/01/01 01:44:43;;;;;;;19.23;10.53;;;;;;;8.62;98.36;99797.19;5009298;28;20202;-54
2022/01/01 01:47:15;;;;;;;23.43;11.50;;;;;;;8.64;99.58;99784.91;5007711;28;20211;-55
2022/01/01 01:49:42;;;;;;;15.70;9.13;;;;;;;8.67;99.20;99789.06;5013340;28;20244;-53
2022/01/01 01:52:09;;;;;;;13.90;7.97;;;;;;;8.70;99.37;99789.66;5013869;28;20226;-54
2022/01/01 01:54:36;;;;;;;14.13;8.40;;;;;;;8.79;98.00;99789.94;5013233;28;20193;-57
2022/01/01 01:57:05;;;;;;;13.47;8.60;;;;;;;8.86;97.54;99786.81;5013665;28;20256;-53
2022/01/01 01:59:32;;;;;;;15.13;9.10;;;;;;;8.98;93.87;99787.69;5011282;28;20269;-57
2022/01/01 02:02:00;;;;;;;13.70;9.00;;;;;;;9.02;93.34;99801.28;5012608;28;20217;-55
2022/01/01 02:04:26;;;;;;;15.03;8.07;;;;;;;9.01;94.46;99797.03;5013366;28;20667;-56
2022/01/01 02:06:53;;;;;;;13.17;7.80;;;;;;;9.06;95.61;99788.91;5013440;28;20299;-56
2022/01/01 02:09:20;;;;;;;11.97;7.37;;;;;;;9.03;97.50;99787.31;5012964;28;20277;-56
2022/01/01 02:11:47;;;;;;;14.33;8.07;;;;;;;9.00;97.45;99777.97;5013343;28;20645;-55
2022/01/01 02:14:21;;;;;;;13.17;8.67;;;;;;;9.01;93.19;99777.03;5013149;28;20193;-56
2022/01/01 02:17:07;;;;;;;14.47;9.00;;;;;;;9.06;94.64;99766.25;5010618;28;20312;-55
2022/01/01 02:19:46;;;;;;;17.33;10.33;;;;;;;9.00;94.27;99772.78;5007089;28;20198;-53
2022/01/01 02:22:15;;;;;;;16.80;9.07;;;;;;;9.01;94.65;99765.78;5010661;28;20571;-56
2022/01/01 02:24:42;;;;;;;13.40;8.83;;;;;;;9.00;94.99;99766.75;5012506;28;20189;-56
2022/01/01 02:27:09;;;;;;;15.23;8.80;;;;;;;8.98;94.17;99768.63;5012754;28;20296;-56
2022/01/01 02:29:37;;;;;;;15.13;9.27;;;;;;;8.99;94.48;99762.47;5011855;28;20198;-56
2022/01/01 02:32:08;;;;;;;14.57;9.07;;;;;;;9.01;95.67;99763.16;5015394;28;20272;-58
2022/01/01 02:34:35;;;;;;;13.83;8.17;;;;;;;8.96;94.81;99753.09;5011864;28;20189;-56
2022/01/01 02:37:02;;;;;;;12.70;7.73;;;;;;;8.95;95.76;99741.03;5012754;28;20215;-58
2022/01/01 02:39:31;;;;;;;14.50;8.87;;;;;;;8.95;94.89;99742.81;5010599;28;20581;-57
2022/01/01 02:41:57;;;;;;;11.83;7.10;;;;;;;8.93;95.47;99729.91;5012494;28;20208;-58
2022/01/01 02:44:27;;;;;;;11.30;6.67;;;;;;;8.93;96.27;99729.91;5010198;28;20657;-57
2022/01/01 02:46:54;;;;;;;11.73;7.23;;;;;;;8.93;96.35;99731.69;5012454;28;20214;-58
2022/01/01 02:49:21;;;;;;;13.67;7.60;;;;;;;8.95;97.19;99729.78;5012814;28;20521;-58
2022/01/01 02:51:48;;;;;;;10.50;6.33;;;;;;;8.92;96.28;99723.03;5011859;28;20270;-58
2022/01/01 02:54:14;;;;;;;12.27;7.60;;;;;;;8.88;96.48;99720.78;5008620;28;20758;-57
2022/01/01 02:56:42;;;;;;;6.90;3.80;;;;;;;8.89;96.55;99725.84;5012454;28;20309;-57
2022/01/01 02:59:09;;;;;;;5.17;3.20;;;;;;;8.92;95.57;99712.59;5012159;28;20236;-56
2022/01/01 03:01:36;;;;;;;12.37;6.07;;;;;;;8.90;95.82;99716.28;5009185;28;20186;-57
2022/01/01 03:04:03;;;;;;;6.27;3.77;;;;;;;8.92;95.68;99720.41;5012381;28;20715;-58
2022/01/01 03:06:29;;;;;;;7.63;3.20;;;;;;;8.90;96.14;99718.88;5011017;28;20284;-56
2022/01/01 03:08:56;;;;;;;6.97;4.57;;;;;;;8.90;96.20;99724.09;5009477;28;20301;-56
2022/01/01 03:11:23;;;;;;;6.10;3.87;;;;;;;8.87;95.65;99722.53;5011991;28;20186;-57
2022/01/01 03:13:52;;;;;;;7.20;4.13;;;;;;;8.83;95.80;99721.94;5012663;28;20181;-55
2022/01/01 03:16:18;;;;;;;6.20;3.40;;;;;;;8.89;96.51;99720.66;5008632;28;20210;-57
2022/01/01 03:18:45;;;;;;;5.83;3.83;;;;;;;8.85;96.06;99722.66;5010965;28;20220;-57
2022/01/01 03:21:12;;;;;;;6.33;3.40;;;;;;;8.80;96.85;99721.31;5010625;28;20228;-56
2022/01/01 03:23:39;;;;;;;7.50;3.50;;;;;;;8.76;96.65;99722.47;5010407;28;20198;-56
2022/01/01 03:26:06;;;;;;;5.07;3.50;;;;;;;8.70;96.04;99716.78;5011005;28;20189;-55
2022/01/01 03:28:33;;;;;;;9.57;3.20;;;;;;;8.69;97.65;99720.31;5010741;28;20667;-57
2022/01/01 03:31:01;;;;;;;4.10;2.80;;;;;;;8.63;97.76;99725.16;5010790;28;20277;-57
2022/01/01 03:33:28;;;;;;;6.50;3.27;;;;;;;8.59;98.55;99726.31;5010873;28;20216;-57
2022/01/01 03:35:54;;;;;;;7.30;3.00;;;;;;;8.56;99.08;99715.19;5010898;28;20280;-57
2022/01/01 03:38:21;;;;;;;5.90;3.03;;;;;;;8.50;99.03;99720.84;5010794;28;20190;-56
2022/01/01 03:40:48;;;;;;;4.10;2.93;;;;;;;8.46;99.59;99710.75;5010337;28;20221;-56
2022/01/01 03:43:15;;;;;;;5.17;2.80;;;;;;;8.33;99.78;99705.56;5010879;28;20192;-56
2022/01/01 03:45:42;;;;;;;4.23;3.07;;;;;;;8.28;100.00;99708.50;5009156;28;20550;-56
2022/01/01 03:48:11;;;;;;;4.70;2.30;;;;;;;8.16;100.00;99699.78;5010466;28;20210;-57
2022/01/01 03:50:37;;;;;;;6.00;3.07;;;;;;;8.05;100.00;99703.16;5010306;28;20271;-57
2022/01/01 03:53:04;;;;;;;6.73;2.60;;;;;;;7.89;100.00;99700.81;5010147;28;20304;-57
2022/01/01 03:55:31;;;;;;;4.53;2.50;;;;;;;7.78;100.00;99696.34;5010881;28;20685;-57
2022/01/01 03:57:58;;;;;;;5.03;2.60;;;;;;;7.64;100.00;99693.88;5010307;28;20651;-59
2022/01/01 04:00:24;;;;;;;4.97;2.33;;;;;;;7.51;100.00;99692.09;5009859;28;20280;-59
2022/01/01 04:02:51;;;;;;;4.97;2.40;;;;;;;7.37;100.00;99694.84;5010640;28;20204;-57
2022/01/01 04:05:19;;;;;;;6.73;2.37;;;;;;;7.23;100.00;99693.16;5009904;28;20273;-56
2022/01/01 04:07:46;;;;;;;3.33;2.70;;;;;;;7.10;100.00;99690.56;5008983;28;20627;-57
2022/01/01 04:10:13;;;;;;;7.17;2.63;;;;;;;7.04;100.00;99689.19;5010217;28;20199;-55
2022/01/01 04:12:40;;;;;;;5.03;2.80;;;;;;;6.92;100.00;99685.66;5011028;28;20308;-56
2022/01/01 04:15:08;;;;;;;5.10;2.60;;;;;;;6.84;100.00;99687.91;5008377;28;20678;-55
2022/01/01 04:17:37;;;;;;;7.53;2.07;;;;;;;6.85;100.00;99686.97;4967856;28;1210081;-54
2022/01/01 04:20:08;;;;;;;3.83;2.70;;;;;;;6.74;100.00;99679.06;5009252;28;20217;-58
2022/01/01 04:22:36;;;;;;;5.40;2.60;;;;;;;6.72;100.00;99683.53;5010852;28;20196;-57
2022/01/01 04:25:04;;;;;;;4.83;2.07;;;;;;;6.59;100.00;99688.69;5008697;28;20193;-57
2022/01/01 04:27:30;;;;;;;5.70;2.37;;;;;;;6.59;100.00;99701.66;5010686;28;20204;-58
2022/01/01 04:29:57;;;;;;;6.73;2.53;;;;;;;6.60;100.00;99695.53;5009814;28;20269;-58
2022/01/01 04:32:24;;;;;;;8.37;2.93;;;;;;;6.49;100.00;99691.00;5006867;28;20228;-58
2022/01/01 04:34:51;;;;;;;5.30;2.90;;;;;;;6.39;100.00;99698.56;5010962;28;20543;-58
2022/01/01 04:37:20;;;;;;;4.90;2.27;;;;;;;6.35;100.00;99695.34;5010454;28;20262;-58
2022/01/01 04:39:51;;;;;;;3.50;2.27;;;;;;;6.33;100.00;99701.53;5008163;28;20184;-57
2022/01/01 04:42:18;;;;;;;7.57;2.67;;;;;;;6.24;100.00;99696.94;5011105;28;20280;-57
2022/01/01 04:44:45;;;;;;;7.03;2.57;;;;;;;6.29;100.00;99695.72;5007369;28;20235;-58
2022/01/01 04:47:11;;;;;;;7.17;2.83;;;;;;;6.21;100.00;99695.38;5009697;28;20307;-57
2022/01/01 04:49:38;;;;;;;6.33;2.90;;;;;;;6.17;100.00;99689.53;5007803;28;20299;-53
2022/01/01 04:52:05;;;;;;;5.23;2.67;;;;;;;6.19;100.00;99684.28;5007311;28;20219;-55
2022/01/01 04:54:34;;;;;;;3.27;2.40;;;;;;;6.15;100.00;99685.41;5007376;28;20199;-56
2022/01/01 04:57:02;;;;;;;3.87;2.43;;;;;;;6.07;100.00;99696.22;5010364;28;20216;-56
2022/01/01 04:59:29;;;;;;;4.60;2.37;;;;;;;6.19;100.00;99698.06;5008143;28;20283;-53
2022/01/01 05:01:55;;;;;;;6.20;2.50;;;;;;;6.07;100.00;99693.63;5004725;28;20197;-58
2022/01/01 05:04:22;;;;;;;6.47;2.40;;;;;;;6.02;100.00;99688.75;5011093;28;20276;-56
2022/01/01 05:06:49;;;;;;;8.17;2.73;;;;;;;5.99;100.00;99688.91;5009759;28;20226;-50
2022/01/01 05:09:17;;;;;;;4.47;2.67;;;;;;;5.96;100.00;99691.69;5009971;28;20204;-56
2022/01/01 05:11:44;;;;;;;5.30;2.60;;;;;;;6.10;100.00;99682.25;5009397;28;20237;-54
2022/01/01 05:14:12;;;;;;;5.80;2.73;;;;;;;6.08;100.00;99697.88;5009922;28;20606;-53
2022/01/01 05:16:40;;;;;;;7.13;2.90;;;;;;;6.00;100.00;99710.47;5010282;28;20212;-56
2022/01/01 05:19:08;;;;;;;5.60;2.63;;;;;;;5.91;100.00;99706.69;5010537;28;20198;-52
2022/01/01 05:21:36;;;;;;;8.57;2.43;;;;;;;5.86;100.00;99709.53;5021320;28;20287;-56
2022/01/01 05:24:06;;;;;;;6.17;2.43;;;;;;;5.98;100.00;99712.31;5014621;28;20655;-53
2022/01/01 05:26:33;;;;;;;5.43;2.30;;;;;;;5.97;100.00;99718.41;5014654;28;20240;-57
2022/01/01 05:29:01;;;;;;;5.60;2.57;;;;;;;5.91;100.00;99719.66;5014077;28;20795;-54
2022/01/01 05:31:33;;;;;;;6.60;2.73;;;;;;;5.91;100.00;99730.81;5014004;28;20291;-55
2022/01/01 05:34:00;;;;;;;6.43;2.60;;;;;;;5.85;100.00;99731.19;5014287;28;20239;-52
2022/01/01 05:36:27;;;;;;;4.90;2.80;;;;;;;5.84;100.00;99729.53;5014036;28;20280;-57
2022/01/01 05:38:54;;;;;;;6.30;2.83;;;;;;;5.76;100.00;99736.97;5014239;28;20184;-55
2022/01/01 05:41:21;;;;;;;8.50;3.03;;;;;;;5.77;100.00;99733.44;5012328;28;20181;-56
2022/01/01 05:43:48;;;;;;;6.83;3.37;;;;;;;5.67;100.00;99734.94;5010832;28;20200;-56
2022/01/01 05:46:14;;;;;;;7.10;2.50;;;;;;;5.66;100.00;99730.66;5013079;28;20483;-54
2022/01/01 05:48:43;;;;;;;7.20;2.67;;;;;;;5.66;100.00;99733.25;5012796;28;20781;-56
2022/01/01 05:51:10;;;;;;;5.07;2.77;;;;;;;5.69;100.00;99730.50;5012959;28;20267;-55
2022/01/01 05:53:36;;;;;;;4.20;2.53;;;;;;;5.64;100.00;99730.75;5013770;28;20669;-54
2022/01/01 05:56:03;;;;;;;3.60;2.20;;;;;;;5.73;100.00;99731.97;5013360;28;20220;-56
2022/01/01 05:58:31;;;;;;;5.30;2.10;;;;;;;5.75;100.00;99724.94;5013305;28;20189;-56
2022/01/01 06:00:58;;;;;;;5.83;2.47;;;;;;;5.75;100.00;99724.94;5013496;28;20542;-56
2022/01/01 06:03:25;;;;;;;6.57;2.67;;;;;;;5.81;100.00;99724.56;5013487;28;20223;-57
2022/01/01 06:05:53;;;;;;;7.23;2.30;;;;;;;5.93;100.00;99722.13;5013271;28;20185;-56
2022/01/01 06:08:19;;;;;;;5.83;2.57;;;;;;;5.94;100.00;99722.06;5013148;28;20236;-55
2022/01/01 06:10:46;;;;;;;3.43;2.27;;;;;;;5.97;100.00;99724.44;5012992;28;20184;-56
2022/01/01 06:13:13;;;;;;;4.07;2.57;;;;;;;6.07;100.00;99724.75;5013337;28;20188;-56
2022/01/01 06:15:42;;;;;;;6.30;3.30;;;;;;;6.12;100.00;99720.09;5009169;28;20228;-56
2022/01/01 06:18:09;;;;;;;11.40;7.43;;;;;;;6.18;100.00;99722.31;5011903;28;20446;-56
2022/01/01 06:20:36;;;;;;;6.07;2.73;;;;;;;6.26;100.00;99721.00;5012816;28;20219;-56
2022/01/01 06:23:04;;;;;;;3.53;2.43;;;;;;;6.31;100.00;99724.16;5013096;28;20185;-56
2022/01/01 06:25:31;;;;;;;4.20;2.67;;;;;;;6.41;100.00;99722.63;5013170;28;20184;-55
2022/01/01 06:27:58;;;;;;;3.10;2.13;;;;;;;6.50;100.00;99729.00;5013044;28;20228;-56
2022/01/01 06:30:25;;;;;;;6.87;2.40;;;;;;;6.56;100.00;99725.19;5011560;28;20326;-56
2022/01/01 06:32:52;;;;;;;6.20;2.30;;;;;;;6.62;100.00;99719.63;5013073;28;20280;-56
2022/01/01 06:35:19;;;;;;;5.03;2.40;;;;;;;6.74;100.00;99729.22;5012753;28;20189;-56
2022/01/01 06:37:45;;;;;;;4.03;2.07;;;;;;;6.86;100.00;99727.56;5012809;28;20223;-56
2022/01/01 06:40:13;;;;;;;5.67;2.70;;;;;;;6.88;100.00;99724.91;5012611;28;20591;-56
2022/01/01 06:42:40;;;;;;;6.73;2.60;;;;;;;6.98;100.00;99733.72;5013003;28;20280;-57
2022/01/01 06:45:07;;;;;;;5.93;2.80;;;;;;;7.09;100.00;99738.22;5012704;28;20191;-57
2022/01/01 06:47:34;;;;;;;5.57;2.60;;;;;;;7.13;100.00;99744.88;5011230;28;20219;-56
2022/01/01 06:50:01;;;;;;;5.03;2.10;;;;;;;7.19;100.00;99739.28;5012346;28;20603;-56
2022/01/01 06:52:28;;;;;;;4.67;2.20;;;;;;;7.24;100.00;99742.41;5012824;28;20279;-55
2022/01/01 06:54:54;;;;;;;5.47;2.67;;;;;;;7.32;100.00;99741.88;5013659;28;20733;-54
2022/01/01 06:57:23;;;;;;;3.73;2.20;;;;;;;7.39;100.00;99744.91;5015714;28;20633;-56
2022/01/01 06:59:49;;;;;;;6.90;2.10;;;;;;;7.42;100.00;99736.06;5012549;28;20212;-53
2022/01/01 07:02:16;;;;;;;5.43;2.53;;;;;;;7.46;100.00;99737.53;5014966;28;20216;-57
2022/01/01 07:04:43;;;;;;;4.87;2.80;;;;;;;7.48;100.00;99738.25;5015204;28;20191;-56
2022/01/01 07:07:10;;;;;;;5.03;3.37;;;;;;;7.53;100.00;99746.56;5014419;28;20247;-56
2022/01/01 07:09:36;;;;;;;5.27;3.03;;;;;;;7.55;100.00;99742.09;5011805;28;20757;-56
2022/01/01 07:12:04;;;;;;;7.23;2.90;;;;;;;7.59;100.00;99742.72;5012082;28;20190;-53
2022/01/01 07:14:32;;;;;;;8.27;3.80;;;;;;;7.58;100.00;99741.91;5011888;28;20203;-56
2022/01/01 07:16:58;;;;;;;9.17;3.20;;;;;;;7.60;100.00;99737.44;5012035;28;20217;-57
2022/01/01 07:19:25;;;;;;;8.70;3.20;;;;;;;7.63;100.00;99734.63;5010497;28;20195;-57
2022/01/01 07:21:52;;;;;;;4.07;3.10;;;;;;;7.62;100.00;99735.56;5010163;28;20208;-55
2022/01/01 07:24:19;;;;;;;4.40;2.87;;;;;;;7.62;100.00;99730.38;5011808;28;20746;-57
2022/01/01 07:26:45;;;;;;;10.57;7.80;;;;;;;7.71;100.00;99731.50;5011882;28;20201;-56
2022/01/01 07:29:12;;;;;;;14.50;7.60;;;;;;;7.70;100.00;99727.22;5011474;28;20658;-54
2022/01/01 07:31:40;;;;;;;8.83;3.97;;;;;;;7.76;100.00;99733.78;5011455;28;20203;-57
2022/01/01 07:34:07;;;;;;;21.87;9.83;;;;;;;7.77;100.00;99730.25;5011900;28;20189;-56
2022/01/01 07:36:34;;;;;;;30.27;15.10;;;;;;;7.82;100.00;99734.19;5011473;28;20205;-56
2022/01/01 07:39:01;;;;;;;22.70;10.77;;;;;;;7.88;100.00;99735.56;5011872;28;20204;-55
2022/01/01 07:41:28;;;;;;;16.30;8.03;;;;;;;7.93;100.00;99733.47;5011155;28;20198;-56
2022/01/01 07:43:54;;;;;;;14.50;5.60;;;;;;;7.98;100.00;99727.94;5011656;28;20213;-56
2022/01/01 07:46:21;;;;;;;10.10;3.73;;;;;;;7.98;100.00;99718.34;5011361;28;20208;-54
2022/01/01 07:48:49;;;;;;;5.30;3.17;;;;;;;8.04;100.00;99713.66;5008811;28;20191;-54
2022/01/01 07:51:16;;;;;;;6.90;3.23;;;;;;;8.11;100.00;99723.53;5010822;28;20243;-55
2022/01/01 07:53:43;;;;;;;6.00;3.60;;;;;;;8.12;100.00;99725.19;5011456;28;20292;-55
2022/01/01 07:56:09;;;;;;;5.67;2.77;;;;;;;8.13;100.00;99718.22;5011630;28;20268;-54
2022/01/01 07:58:36;;;;;;;6.07;3.00;;;;;;;8.15;100.00;99728.53;5011241;28;20189;-55
2022/01/01 08:01:03;;;;;;;6.30;2.80;;;;;;;8.19;100.00;99720.38;5010481;28;20203;-55
2022/01/01 08:03:30;;;;;;;11.03;6.57;;;;;;;8.19;100.00;99732.56;5011572;28;21043;-54
2022/01/01 08:05:58;;;;;;;6.17;4.00;;;;;;;8.21;100.00;99721.09;5010937;28;20727;-56
2022/01/01 08:08:25;;;;;;;5.17;3.40;;;;;;;8.28;100.00;99722.34;5000578;28;20579;-55
2022/01/01 08:10:52;;;;;;;5.60;3.30;;;;;;;8.32;100.00;99735.97;4991287;28;20214;-55
2022/01/01 08:13:24;;;;;;;5.60;4.13;;;;;;;8.42;100.00;99736.13;5007560;28;20287;-56
2022/01/01 08:15:51;;;;;;;9.57;6.23;;;;;;;8.50;100.00;99738.22;5011092;28;20193;-57
2022/01/01 08:18:19;;;;;;;7.77;6.07;;;;;;;8.58;100.00;99733.28;5010983;28;20239;-54
2022/01/01 08:20:47;;;;;;;7.87;4.03;;;;;;;8.69;100.00;99735.94;5009325;28;20190;-56
2022/01/01 08:23:16;;;;;;;8.23;4.07;;;;;;;8.83;100.00;99736.72;5010447;28;20623;-56
2022/01/01 08:25:42;;;;;;;5.03;3.30;;;;;;;8.94;100.00;99738.56;5010805;28;20210;-57
2022/01/01 08:28:10;;;;;;;5.57;3.77;;;;;;;9.04;100.00;99733.47;5010410;28;20291;-55
2022/01/01 08:30:37;;;;;;;9.73;6.23;;;;;;;9.01;100.00;99751.00;5009742;28;20233;-53
2022/01/01 08:33:04;;;;;;;13.10;7.63;;;;;;;8.84;100.00;99751.41;5010886;28;20201;-58
2022/01/01 08:35:31;;;;;;;15.87;8.67;;;;;;;8.75;100.00;99760.72;5008897;28;20305;-52
2022/01/01 08:37:58;;;;;;;14.50;8.07;;;;;;;8.57;99.18;99762.84;5009133;28;20245;-56
2022/01/01 08:40:27;;;;;;;13.00;8.30;;;;;;;8.57;99.44;99762.84;5009933;28;20235;-54
2022/01/01 08:42:54;;;;;;;15.07;8.00;;;;;;;8.48;97.24;99781.72;5009939;28;20277;-56
2022/01/01 08:45:21;;;;;;;11.70;7.60;;;;;;;8.40;97.79;99772.69;5010679;28;20192;-52
2022/01/01 08:47:48;;;;;;;13.13;8.20;;;;;;;8.35;96.67;99777.38;5011015;28;20275;-57
2022/01/01 08:50:15;;;;;;;12.57;8.50;;;;;;;8.20;95.17;99774.06;5007777;28;20220;-56
2022/01/01 08:52:42;;;;;;;13.43;8.73;;;;;;;8.20;96.18;99768.03;5011589;28;20264;-56
2022/01/01 08:55:10;;;;;;;12.03;7.70;;;;;;;8.06;96.55;99772.44;5011454;28;20221;-56
2022/01/01 08:57:39;;;;;;;12.80;7.37;;;;;;;7.96;96.75;99768.81;5012283;28;20307;-57
2022/01/01 09:00:09;;;;;;;9.63;7.10;;;;;;;7.90;98.05;99767.47;5014424;28;20664;-56
2022/01/01 09:02:36;;;;;;;10.00;7.15;;;;;;;7.82;98.67;99772.38;5013794;28;20421;-58
2022/01/01 09:05:04;;;;;;;10.17;6.90;;;;;;;7.75;99.79;99777.13;5014793;28;20198;-57
2022/01/01 09:07:31;;;;;;;15.10;6.17;;;;;;;7.73;100.00;99768.59;5015014;28;20367;-52
2022/01/01 09:09:59;;;;;;;8.43;5.33;;;;;;;7.79;100.00;99764.78;5014336;28;20227;-56
2022/01/01 09:12:26;;;;;;;10.57;6.60;;;;;;;7.77;100.00;99770.06;5014302;28;20193;-56
2022/01/01 09:14:54;;;;;;;11.90;7.17;;;;;;;7.81;100.00;99768.91;5014646;28;20216;-54
2022/01/01 09:17:22;;;;;;;11.50;7.80;;;;;;;7.86;100.00;99772.97;5014715;28;20247;-53
2022/01/01 09:19:50;;;;;;;12.77;8.20;;;;;;;7.90;100.00;99766.63;5013582;28;20660;-56
2022/01/01 09:22:17;;;;;;;11.43;7.93;;;;;;;7.96;100.00;99774.00;5014619;28;20185;-57
2022/01/01 09:24:43;;;;;;;12.17;7.17;;;;;;;7.98;100.00;99770.34;5014885;28;20264;-56
2022/01/01 09:27:10;;;;;;;14.23;7.97;;;;;;;8.09;100.00;99772.22;5014043;28;20634;-54
2022/01/01 09:29:37;;;;;;;15.43;7.97;;;;;;;8.18;100.00;99780.31;5014131;28;20201;-53
2022/01/01 09:32:06;;;;;;;12.33;8.30;;;;;;;8.24;100.00;99780.72;5024990;28;20247;-53
2022/01/01 09:34:33;;;;;;;12.57;7.23;;;;;;;8.29;100.00;99780.41;5034015;28;20193;-56
2022/01/01 09:37:00;;;;;;;13.83;9.13;;;;;;;8.32;100.00;99780.19;5032732;28;20248;-53
2022/01/01 09:39:27;;;;;;;12.93;9.10;;;;;;;8.35;99.58;99787.78;5033571;28;20212;-54
2022/01/01 09:41:53;;;;;;;15.33;9.37;;;;;;;8.39;98.84;99784.03;5032855;28;20180;-56
2022/01/01 09:44:21;;;;;;;17.17;9.33;;;;;;;8.39;97.90;99778.81;5033852;28;20725;-55
2022/01/01 09:46:51;;;;;;;13.93;9.10;;;;;;;8.45;97.93;99785.34;5034092;28;20213;-57
2022/01/01 09:49:20;;;;;;;11.60;7.80;;;;;;;8.55;98.09;99790.75;5033609;28;20196;-54
2022/01/01 09:51:48;;;;;;;13.03;8.40;;;;;;;8.63;97.42;99798.84;5002425;28;20659;-56
2022/01/01 09:54:15;;;;;;;14.80;8.80;;;;;;;8.68;97.35;99791.53;5014432;28;20256;-56
2022/01/01 09:56:41;;;;;;;13.30;8.43;;;;;;;8.70;96.59;99794.88;5014037;28;20239;-55
2022/01/01 09:59:08;;;;;;;14.90;9.20;;;;;;;8.78;97.13;99783.94;5012877;28;20255;-56
2022/01/01 10:01:35;;;;;;;19.43;11.83;;;;;;;8.89;98.00;99788.34;5013613;28;20272;-56
2022/01/01 10:04:12;;;;;;;14.57;9.67;;;;;;;8.98;96.59;99790.28;5013611;28;20223;-55
2022/01/01 10:06:41;;;;;;;14.90;7.53;;;;;;;9.05;95.98;99782.84;5012508;28;20268;-55
2022/01/01 10:09:09;;;;;;;13.60;7.53;;;;;;;9.18;96.52;99784.53;5013492;28;20221;-56
2022/01/01 10:11:37;;;;;;;12.90;7.87;;;;;;;9.28;95.15;99782.91;5006509;28;20223;-54
2022/01/01 10:14:07;;;;;;;11.63;7.00;;;;;;;9.41;95.98;99781.06;5013825;28;20273;-56
2022/01/01 10:16:41;;;;;;;10.23;6.63;;;;;;;9.50;95.37;99781.31;5013430;28;20225;-53
2022/01/01 10:19:08;;;;;;;12.03;6.90;;;;;;;9.59;95.04;99772.81;5013654;28;20193;-56
2022/01/01 10:21:40;;;;;;;10.03;6.40;;;;;;;9.67;94.68;99773.06;5012116;28;20317;-55
2022/01/01 10:24:13;;;;;;;11.13;7.33;;;;;;;9.73;92.71;99782.19;5013601;28;20187;-56
2022/01/01 10:29:26;;;;;;;9.80;5.90;;;;;;;9.91;92.98;99772.13;5013373;28;20941;-56
2022/01/01 10:31:56;;;;;;;9.30;6.37;;;;;;;9.98;93.07;99770.72;5013108;28;20261;-56
2022/01/01 10:34:25;;;;;;;12.10;5.43;;;;;;;10.09;92.30;99772.47;5013049;28;20676;-57
2022/01/01 10:36:53;;;;;;;11.20;5.80;;;;;;;10.12;92.02;99768.78;5013312;28;20704;-56
2022/01/01 10:39:22;;;;;;;13.33;7.13;;;;;;;10.18;91.02;99770.91;5013231;28;20799;-55
2022/01/01 10:41:53;;;;;;;9.07;5.53;;;;;;;10.26;91.21;99771.16;5011540;28;20183;-56
2022/01/01 10:44:27;;;;;;;9.50;5.57;;;;;;;10.31;91.49;99763.78;5012946;28;20189;-56
2022/01/01 10:46:54;;;;;;;9.10;5.13;;;;;;;10.32;91.04;99756.81;5012927;28;20733;-57
2022/01/01 10:50:02;;;;;;;7.57;5.00;;;;;;;10.39;90.44;99755.41;5012642;28;20191;-58
2022/01/01 10:52:32;;;;;;;10.73;5.30;;;;;;;10.46;89.55;99756.56;5009437;28;20834;-55
2022/01/01 10:55:02;;;;;;;7.43;4.80;;;;;;;10.61;89.19;99743.22;5012096;28;20193;-57
2022/01/01 10:57:33;;;;;;;8.60;4.43;;;;;;;10.66;89.21;99748.09;5012620;28;20317;-57
2022/01/01 11:00:17;;;;;;;7.47;4.43;;;;;;;10.66;89.48;99746.28;5012333;28;20572;-56
2022/01/01 11:02:45;;;;;;;7.77;5.27;;;;;;;10.73;87.72;99744.03;5011434;28;20205;-55
2022/01/01 11:05:13;;;;;;;7.30;4.20;;;;;;;10.79;87.84;99743.53;5012773;28;20702;-55
2022/01/01 11:07:50;;;;;;;8.87;5.57;;;;;;;10.81;88.20;99736.41;5012420;28;20206;-58
2022/01/01 11:10:19;;;;;;;7.33;4.40;;;;;;;10.87;88.18;99732.44;5010937;28;20304;-56
2022/01/01 11:12:46;;;;;;;8.87;5.53;;;;;;;10.89;87.72;99734.00;5011775;28;20199;-57
2022/01/01 11:15:15;;;;;;;6.80;4.23;;;;;;;11.01;87.56;99726.94;5010745;28;20202;-57
2022/01/01 11:17:42;;;;;;;6.57;4.70;;;;;;;11.03;86.74;99721.59;5009307;28;20219;-57
2022/01/01 11:20:10;;;;;;;8.07;4.53;;;;;;;11.00;86.47;99711.41;5010419;28;20226;-58
2022/01/01 11:22:37;;;;;;;8.63;5.63;;;;;;;11.05;86.14;99711.84;5012891;28;20610;-56
2022/01/01 11:25:05;;;;;;;9.73;5.83;;;;;;;11.10;85.42;99717.53;5012233;28;20690;-57
2022/01/01 11:27:33;;;;;;;10.83;6.23;;;;;;;11.25;84.89;99711.94;5009145;28;20219;-56
2022/01/01 11:30:04;;;;;;;7.53;5.30;;;;;;;11.29;84.46;99708.97;5009602;28;20301;-57
2022/01/01 11:32:41;;;;;;;7.30;4.87;;;;;;;11.28;84.39;99701.22;5010939;28;20284;-56
2022/01/01 11:35:10;;;;;;;8.77;6.30;;;;;;;11.27;84.99;99703.03;5000747;28;20236;-57
2022/01/01 11:37:56;;;;;;;8.97;5.57;;;;;;;11.34;84.41;99698.94;5010406;28;20644;-56